sensor_id;sensor_type;location;lat;lon;timestamp;temperature;humidity
8226;DHT22;4154;48.810;9.012;2023-02-03T00:01:32;6.50;99.90
8226;DHT22;4154;48.810;9.012;2023-02-03T00:03:57;6.50;99.90
8226;DHT22;4154;48.810;9.012;2023-02-03T00:06:23;6.30;99.90
8226;DHT22;4154;48.810;9.012;2023-02-03T00:08:52;6.40;99.90
8226;DHT22;4154;48.810;9.012;2023-02-03T00:11:20;6.40;99.90
8226;DHT22;4154;48.810;9.012;2023-02-03T00:13:46;6.40;99.90
8226;DHT22;4154;48.810;9.012;2023-02-03T00:16:12;6.40;99.90
8226;DHT22;4154;48.810;9.012;2023-02-03T00:18:37;6.40;99.90
8226;DHT22;4154;48.810;9.012;2023-02-03T00:21:04;6.40;99.90
8226;DHT22;4154;48.810;9.012;2023-02-03T00:23:30;6.40;99.90
8226;DHT22;4154;48.810;9.012;2023-02-03T00:25:57;6.40;99.90
8226;DHT22;4154;48.810;9.012;2023-02-03T00:28:31;6.40;99.90
8226;DHT22;4154;48.810;9.012;2023-02-03T00:30:56;6.40;99.90
8226;DHT22;4154;48.810;9.012;2023-02-03T00:33:22;6.40;99.90
8226;DHT22;4154;48.810;9.012;2023-02-03T00:35:47;6.40;99.90
8226;DHT22;4154;48.810;9.012;2023-02-03T00:38:14;6.40;99.90
8226;DHT22;4154;48.810;9.012;2023-02-03T00:40:39;6.40;99.90
8226;DHT22;4154;48.810;9.012;2023-02-03T00:43:05;6.30;99.90
8226;DHT22;4154;48.810;9.012;2023-02-03T00:45:31;6.40;99.90
8226;DHT22;4154;48.810;9.012;2023-02-03T00:47:56;6.40;99.90
8226;DHT22;4154;48.810;9.012;2023-02-03T00:52:48;6.30;99.90
8226;DHT22;4154;48.810;9.012;2023-02-03T00:55:14;6.30;99.90
8226;DHT22;4154;48.810;9.012;2023-02-03T00:57:39;6.20;99.90
8226;DHT22;4154;48.810;9.012;2023-02-03T01:00:06;6.20;99.90
8226;DHT22;4154;48.810;9.012;2023-02-03T01:02:32;6.30;99.90
8226;DHT22;4154;48.810;9.012;2023-02-03T01:04:57;6.30;99.90
8226;DHT22;4154;48.810;9.012;2023-02-03T01:07:23;6.30;99.90
8226;DHT22;4154;48.810;9.012;2023-02-03T01:09:49;6.30;99.90
8226;DHT22;4154;48.810;9.012;2023-02-03T01:12:14;6.30;99.90
8226;DHT22;4154;48.810;9.012;2023-02-03T01:14:40;6.30;99.90
8226;DHT22;4154;48.810;9.012;2023-02-03T01:17:05;6.30;99.90
8226;DHT22;4154;48.810;9.012;2023-02-03T01:19:31;6.30;99.90
8226;DHT22;4154;48.810;9.012;2023-02-03T01:21:57;6.40;99.90
8226;DHT22;4154;48.810;9.012;2023-02-03T01:24:22;6.40;99.90
8226;DHT22;4154;48.810;9.012;2023-02-03T01:26:48;6.40;99.90
8226;DHT22;4154;48.810;9.012;2023-02-03T01:29:14;6.30;99.90
8226;DHT22;4154;48.810;9.012;2023-02-03T01:31:40;6.20;99.90
8226;DHT22;4154;48.810;9.012;2023-02-03T01:34:11;6.20;99.90
8226;DHT22;4154;48.810;9.012;2023-02-03T01:36:38;6.20;99.90
8226;DHT22;4154;48.810;9.012;2023-02-03T01:39:05;6.10;99.90
8226;DHT22;4154;48.810;9.012;2023-02-03T01:41:36;6.10;99.90
8226;DHT22;4154;48.810;9.012;2023-02-03T01:47:23;6.10;99.90
8226;DHT22;4154;48.810;9.012;2023-02-03T01:52:45;6.00;99.90
8226;DHT22;4154;48.810;9.012;2023-02-03T01:55:18;6.00;99.90
8226;DHT22;4154;48.810;9.012;2023-02-03T01:57:51;6.00;99.90
8226;DHT22;4154;48.810;9.012;2023-02-03T02:00:20;6.10;99.90
8226;DHT22;4154;48.810;9.012;2023-02-03T02:02:47;6.10;99.90
8226;DHT22;4154;48.810;9.012;2023-02-03T02:05:27;6.10;99.90
8226;DHT22;4154;48.810;9.012;2023-02-03T02:07:58;6.10;99.90
8226;DHT22;4154;48.810;9.012;2023-02-03T02:10:28;6.10;99.90
8226;DHT22;4154;48.810;9.012;2023-02-03T02:12:56;6.00;99.90
8226;DHT22;4154;48.810;9.012;2023-02-03T02:21:51;6.00;99.90
8226;DHT22;4154;48.810;9.012;2023-02-03T02:31:05;6.10;99.90
8226;DHT22;4154;48.810;9.012;2023-02-03T02:33:58;6.00;99.90
8226;DHT22;4154;48.810;9.012;2023-02-03T02:36:56;6.00;99.90
8226;DHT22;4154;48.810;9.012;2023-02-03T02:39:37;6.00;99.90
8226;DHT22;4154;48.810;9.012;2023-02-03T02:42:30;6.00;99.90
8226;DHT22;4154;48.810;9.012;2023-02-03T02:45:15;6.00;99.90
8226;DHT22;4154;48.810;9.012;2023-02-03T02:47:53;6.10;99.90
8226;DHT22;4154;48.810;9.012;2023-02-03T02:50:31;6.20;99.90
8226;DHT22;4154;48.810;9.012;2023-02-03T02:53:03;6.20;99.90
8226;DHT22;4154;48.810;9.012;2023-02-03T02:55:31;6.20;99.90
8226;DHT22;4154;48.810;9.012;2023-02-03T02:58:06;6.20;99.90
8226;DHT22;4154;48.810;9.012;2023-02-03T03:00:35;6.30;99.90
8226;DHT22;4154;48.810;9.012;2023-02-03T03:03:19;6.30;99.90
8226;DHT22;4154;48.810;9.012;2023-02-03T03:06:08;6.30;99.90
8226;DHT22;4154;48.810;9.012;2023-02-03T03:09:02;6.20;99.90
8226;DHT22;4154;48.810;9.012;2023-02-03T03:11:37;6.20;99.90
8226;DHT22;4154;48.810;9.012;2023-02-03T03:14:08;6.10;99.90
8226;DHT22;4154;48.810;9.012;2023-02-03T03:16:37;6.30;99.90
8226;DHT22;4154;48.810;9.012;2023-02-03T03:19:09;6.20;99.90
8226;DHT22;4154;48.810;9.012;2023-02-03T03:21:50;6.40;99.90
8226;DHT22;4154;48.810;9.012;2023-02-03T03:24:46;6.40;99.90
8226;DHT22;4154;48.810;9.012;2023-02-03T03:27:17;6.50;99.90
8226;DHT22;4154;48.810;9.012;2023-02-03T03:32:19;6.50;99.90
8226;DHT22;4154;48.810;9.012;2023-02-03T03:34:46;6.50;99.90
8226;DHT22;4154;48.810;9.012;2023-02-03T03:37:27;6.50;99.90
8226;DHT22;4154;48.810;9.012;2023-02-03T03:40:08;6.60;99.90
8226;DHT22;4154;48.810;9.012;2023-02-03T03:42:53;6.50;99.90
8226;DHT22;4154;48.810;9.012;2023-02-03T03:45:49;6.60;99.90
8226;DHT22;4154;48.810;9.012;2023-02-03T03:48:28;6.60;99.90
8226;DHT22;4154;48.810;9.012;2023-02-03T03:51:08;6.60;99.90
8226;DHT22;4154;48.810;9.012;2023-02-03T03:53:41;6.50;99.90
8226;DHT22;4154;48.810;9.012;2023-02-03T03:56:11;6.60;99.90
8226;DHT22;4154;48.810;9.012;2023-02-03T03:58:43;6.60;99.90
8226;DHT22;4154;48.810;9.012;2023-02-03T04:01:14;6.60;99.90
8226;DHT22;4154;48.810;9.012;2023-02-03T04:03:45;6.70;99.90
8226;DHT22;4154;48.810;9.012;2023-02-03T04:06:14;6.70;99.90
8226;DHT22;4154;48.810;9.012;2023-02-03T04:08:40;6.70;99.90
8226;DHT22;4154;48.810;9.012;2023-02-03T04:11:06;6.70;99.90
8226;DHT22;4154;48.810;9.012;2023-02-03T04:13:32;6.70;99.90
8226;DHT22;4154;48.810;9.012;2023-02-03T04:15:58;6.80;99.90
8226;DHT22;4154;48.810;9.012;2023-02-03T04:18:23;6.80;99.90
8226;DHT22;4154;48.810;9.012;2023-02-03T04:20:49;6.70;99.90
8226;DHT22;4154;48.810;9.012;2023-02-03T04:23:15;6.70;99.90
8226;DHT22;4154;48.810;9.012;2023-02-03T04:25:41;6.60;99.90
8226;DHT22;4154;48.810;9.012;2023-02-03T04:28:06;6.50;99.90
8226;DHT22;4154;48.810;9.012;2023-02-03T04:30:32;6.50;99.90
8226;DHT22;4154;48.810;9.012;2023-02-03T04:32:58;6.40;99.90
8226;DHT22;4154;48.810;9.012;2023-02-03T04:35:24;6.40;99.90
8226;DHT22;4154;48.810;9.012;2023-02-03T04:37:50;6.30;99.90
8226;DHT22;4154;48.810;9.012;2023-02-03T04:40:16;6.30;99.90
8226;DHT22;4154;48.810;9.012;2023-02-03T04:42:42;6.30;99.90
8226;DHT22;4154;48.810;9.012;2023-02-03T04:45:09;6.30;99.90
8226;DHT22;4154;48.810;9.012;2023-02-03T04:47:36;6.30;99.90
8226;DHT22;4154;48.810;9.012;2023-02-03T04:50:03;6.30;99.90
8226;DHT22;4154;48.810;9.012;2023-02-03T04:52:29;6.20;99.90
8226;DHT22;4154;48.810;9.012;2023-02-03T04:54:55;6.20;99.90
8226;DHT22;4154;48.810;9.012;2023-02-03T04:57:20;6.10;99.90
8226;DHT22;4154;48.810;9.012;2023-02-03T04:59:46;6.10;99.90
8226;DHT22;4154;48.810;9.012;2023-02-03T05:02:11;6.10;99.90
8226;DHT22;4154;48.810;9.012;2023-02-03T05:04:37;6.20;99.90
8226;DHT22;4154;48.810;9.012;2023-02-03T05:07:03;6.20;99.90
8226;DHT22;4154;48.810;9.012;2023-02-03T05:09:28;6.20;99.90
8226;DHT22;4154;48.810;9.012;2023-02-03T05:14:20;6.20;99.90
8226;DHT22;4154;48.810;9.012;2023-02-03T05:19:12;6.30;99.90
8226;DHT22;4154;48.810;9.012;2023-02-03T05:21:38;6.20;99.90
8226;DHT22;4154;48.810;9.012;2023-02-03T05:24:04;6.30;99.90
8226;DHT22;4154;48.810;9.012;2023-02-03T05:26:33;6.20;99.90
8226;DHT22;4154;48.810;9.012;2023-02-03T05:28:59;6.20;99.90
8226;DHT22;4154;48.810;9.012;2023-02-03T05:31:25;6.30;99.90
8226;DHT22;4154;48.810;9.012;2023-02-03T05:33:51;6.40;99.90
8226;DHT22;4154;48.810;9.012;2023-02-03T05:36:16;6.20;99.90
8226;DHT22;4154;48.810;9.012;2023-02-03T05:38:42;6.30;99.90
8226;DHT22;4154;48.810;9.012;2023-02-03T05:41:11;6.20;99.90
8226;DHT22;4154;48.810;9.012;2023-02-03T05:43:55;6.30;99.90
8226;DHT22;4154;48.810;9.012;2023-02-03T05:46:21;5.90;99.90
8226;DHT22;4154;48.810;9.012;2023-02-03T05:48:47;6.30;99.90
8226;DHT22;4154;48.810;9.012;2023-02-03T05:51:13;6.30;99.90
8226;DHT22;4154;48.810;9.012;2023-02-03T05:53:38;6.30;99.90
8226;DHT22;4154;48.810;9.012;2023-02-03T05:56:04;6.30;99.90
8226;DHT22;4154;48.810;9.012;2023-02-03T05:58:30;6.20;99.90
8226;DHT22;4154;48.810;9.012;2023-02-03T06:03:22;6.30;99.90
8226;DHT22;4154;48.810;9.012;2023-02-03T06:05:47;6.30;99.90
8226;DHT22;4154;48.810;9.012;2023-02-03T06:08:13;6.30;99.90
8226;DHT22;4154;48.810;9.012;2023-02-03T06:10:39;6.30;99.90
8226;DHT22;4154;48.810;9.012;2023-02-03T06:13:13;6.30;99.90
8226;DHT22;4154;48.810;9.012;2023-02-03T06:15:40;6.30;99.90
8226;DHT22;4154;48.810;9.012;2023-02-03T06:18:07;6.30;99.90
8226;DHT22;4154;48.810;9.012;2023-02-03T06:20:33;6.30;99.90
8226;DHT22;4154;48.810;9.012;2023-02-03T06:25:25;6.30;99.90
8226;DHT22;4154;48.810;9.012;2023-02-03T06:27:51;6.30;99.90
8226;DHT22;4154;48.810;9.012;2023-02-03T06:30:17;6.20;99.90
8226;DHT22;4154;48.810;9.012;2023-02-03T06:32:47;6.30;99.90
8226;DHT22;4154;48.810;9.012;2023-02-03T06:37:38;6.30;99.90
8226;DHT22;4154;48.810;9.012;2023-02-03T06:40:06;6.20;99.90
8226;DHT22;4154;48.810;9.012;2023-02-03T06:42:32;6.20;99.90
8226;DHT22;4154;48.810;9.012;2023-02-03T06:44:58;6.20;99.90
8226;DHT22;4154;48.810;9.012;2023-02-03T06:49:50;6.30;99.90
8226;DHT22;4154;48.810;9.012;2023-02-03T06:52:16;6.30;99.90
8226;DHT22;4154;48.810;9.012;2023-02-03T06:54:43;6.30;99.90
8226;DHT22;4154;48.810;9.012;2023-02-03T06:57:08;6.30;99.90
8226;DHT22;4154;48.810;9.012;2023-02-03T06:59:34;6.30;99.90
8226;DHT22;4154;48.810;9.012;2023-02-03T07:01:59;6.20;99.90
8226;DHT22;4154;48.810;9.012;2023-02-03T07:04:25;6.20;99.90
8226;DHT22;4154;48.810;9.012;2023-02-03T07:06:55;6.20;99.90
8226;DHT22;4154;48.810;9.012;2023-02-03T07:09:21;6.20;99.90
8226;DHT22;4154;48.810;9.012;2023-02-03T07:11:47;6.20;99.90
8226;DHT22;4154;48.810;9.012;2023-02-03T07:14:13;6.20;99.90
8226;DHT22;4154;48.810;9.012;2023-02-03T07:16:38;6.10;99.90
8226;DHT22;4154;48.810;9.012;2023-02-03T07:19:04;6.10;99.90
8226;DHT22;4154;48.810;9.012;2023-02-03T07:21:31;6.20;99.90
8226;DHT22;4154;48.810;9.012;2023-02-03T07:23:57;6.20;99.90
8226;DHT22;4154;48.810;9.012;2023-02-03T07:26:23;6.20;99.90
8226;DHT22;4154;48.810;9.012;2023-02-03T07:28:50;6.10;99.90
8226;DHT22;4154;48.810;9.012;2023-02-03T07:31:17;6.20;99.90
8226;DHT22;4154;48.810;9.012;2023-02-03T07:33:43;6.10;99.90
8226;DHT22;4154;48.810;9.012;2023-02-03T07:38:36;6.20;99.90
8226;DHT22;4154;48.810;9.012;2023-02-03T07:41:03;6.20;99.90
8226;DHT22;4154;48.810;9.012;2023-02-03T07:43:29;6.20;99.90
8226;DHT22;4154;48.810;9.012;2023-02-03T07:45:55;6.20;99.90
8226;DHT22;4154;48.810;9.012;2023-02-03T07:48:21;6.20;99.90
8226;DHT22;4154;48.810;9.012;2023-02-03T07:50:47;6.10;99.90
8226;DHT22;4154;48.810;9.012;2023-02-03T07:53:13;6.10;99.90
8226;DHT22;4154;48.810;9.012;2023-02-03T07:55:41;6.20;99.90
8226;DHT22;4154;48.810;9.012;2023-02-03T07:58:06;6.10;99.90
8226;DHT22;4154;48.810;9.012;2023-02-03T08:00:32;6.10;99.90
8226;DHT22;4154;48.810;9.012;2023-02-03T08:02:59;6.10;99.90
8226;DHT22;4154;48.810;9.012;2023-02-03T08:05:25;6.10;99.90
8226;DHT22;4154;48.810;9.012;2023-02-03T08:07:54;6.10;99.90
8226;DHT22;4154;48.810;9.012;2023-02-03T08:10:24;6.10;99.90
8226;DHT22;4154;48.810;9.012;2023-02-03T08:13:01;6.20;99.90
8226;DHT22;4154;48.810;9.012;2023-02-03T08:15:27;6.20;99.90
8226;DHT22;4154;48.810;9.012;2023-02-03T08:17:57;6.30;99.90
8226;DHT22;4154;48.810;9.012;2023-02-03T08:20:26;6.30;99.90
8226;DHT22;4154;48.810;9.012;2023-02-03T08:23:30;6.40;99.90
8226;DHT22;4154;48.810;9.012;2023-02-03T08:26:00;6.40;99.90
8226;DHT22;4154;48.810;9.012;2023-02-03T08:28:32;6.30;99.90
8226;DHT22;4154;48.810;9.012;2023-02-03T08:30:58;6.30;99.90
8226;DHT22;4154;48.810;9.012;2023-02-03T08:33:33;6.30;99.90
8226;DHT22;4154;48.810;9.012;2023-02-03T08:35:59;6.30;99.90
8226;DHT22;4154;48.810;9.012;2023-02-03T08:38:28;6.30;99.90
8226;DHT22;4154;48.810;9.012;2023-02-03T08:41:01;6.40;99.90
8226;DHT22;4154;48.810;9.012;2023-02-03T08:43:32;6.40;99.90
8226;DHT22;4154;48.810;9.012;2023-02-03T08:46:27;6.40;99.90
8226;DHT22;4154;48.810;9.012;2023-02-03T08:49:03;6.40;99.90
8226;DHT22;4154;48.810;9.012;2023-02-03T08:51:30;6.40;99.90
8226;DHT22;4154;48.810;9.012;2023-02-03T08:53:56;6.40;99.90
8226;DHT22;4154;48.810;9.012;2023-02-03T08:58:49;6.50;99.90
8226;DHT22;4154;48.810;9.012;2023-02-03T09:01:15;6.60;99.90
8226;DHT22;4154;48.810;9.012;2023-02-03T09:03:41;6.50;99.90
8226;DHT22;4154;48.810;9.012;2023-02-03T09:06:08;6.50;99.90
8226;DHT22;4154;48.810;9.012;2023-02-03T09:08:36;6.60;99.90
8226;DHT22;4154;48.810;9.012;2023-02-03T09:15:59;6.60;99.90
8226;DHT22;4154;48.810;9.012;2023-02-03T09:18:25;6.70;99.90
8226;DHT22;4154;48.810;9.012;2023-02-03T09:20:51;6.70;99.90
8226;DHT22;4154;48.810;9.012;2023-02-03T09:25:42;6.80;99.90
8226;DHT22;4154;48.810;9.012;2023-02-03T09:28:08;6.90;99.90
8226;DHT22;4154;48.810;9.012;2023-02-03T09:30:34;6.90;99.90
8226;DHT22;4154;48.810;9.012;2023-02-03T09:32:59;6.90;99.90
8226;DHT22;4154;48.810;9.012;2023-02-03T09:35:25;6.90;99.90
8226;DHT22;4154;48.810;9.012;2023-02-03T09:37:51;6.80;99.90
8226;DHT22;4154;48.810;9.012;2023-02-03T09:40:20;6.90;99.90
8226;DHT22;4154;48.810;9.012;2023-02-03T09:43:01;6.80;99.90
8226;DHT22;4154;48.810;9.012;2023-02-03T09:45:34;6.90;99.90
8226;DHT22;4154;48.810;9.012;2023-02-03T09:48:05;6.80;99.90
8226;DHT22;4154;48.810;9.012;2023-02-03T09:50:50;6.80;99.90
8226;DHT22;4154;48.810;9.012;2023-02-03T09:54:12;6.90;99.90
8226;DHT22;4154;48.810;9.012;2023-02-03T09:56:26;6.80;99.90
8226;DHT22;4154;48.810;9.012;2023-02-03T09:58:55;7.00;99.90
8226;DHT22;4154;48.810;9.012;2023-02-03T10:01:24;7.00;99.90
8226;DHT22;4154;48.810;9.012;2023-02-03T10:03:59;7.00;99.90
8226;DHT22;4154;48.810;9.012;2023-02-03T10:06:36;6.90;99.90
8226;DHT22;4154;48.810;9.012;2023-02-03T10:15:04;7.20;99.90
8226;DHT22;4154;48.810;9.012;2023-02-03T10:17:56;7.20;99.90
8226;DHT22;4154;48.810;9.012;2023-02-03T10:20:50;7.20;99.90
8226;DHT22;4154;48.810;9.012;2023-02-03T10:23:26;7.30;99.90
8226;DHT22;4154;48.810;9.012;2023-02-03T10:26:11;7.40;99.90
8226;DHT22;4154;48.810;9.012;2023-02-03T10:28:50;7.30;99.90
8226;DHT22;4154;48.810;9.012;2023-02-03T10:31:21;7.30;99.90
8226;DHT22;4154;48.810;9.012;2023-02-03T10:34:11;7.30;99.90
8226;DHT22;4154;48.810;9.012;2023-02-03T10:39:29;7.30;99.90
8226;DHT22;4154;48.810;9.012;2023-02-03T10:42:00;7.20;99.90
8226;DHT22;4154;48.810;9.012;2023-02-03T10:44:51;7.10;99.90
8226;DHT22;4154;48.810;9.012;2023-02-03T10:47:47;7.30;99.90
8226;DHT22;4154;48.810;9.012;2023-02-03T10:50:22;7.40;99.90
8226;DHT22;4154;48.810;9.012;2023-02-03T10:53:23;7.60;99.90
8226;DHT22;4154;48.810;9.012;2023-02-03T10:56:03;7.60;99.90
8226;DHT22;4154;48.810;9.012;2023-02-03T10:58:32;7.70;99.90
8226;DHT22;4154;48.810;9.012;2023-02-03T11:01:10;7.80;99.90
8226;DHT22;4154;48.810;9.012;2023-02-03T11:03:42;7.70;99.90
8226;DHT22;4154;48.810;9.012;2023-02-03T11:06:11;7.80;99.90
8226;DHT22;4154;48.810;9.012;2023-02-03T11:08:42;7.60;99.90
8226;DHT22;4154;48.810;9.012;2023-02-03T11:11:14;7.60;99.90
8226;DHT22;4154;48.810;9.012;2023-02-03T11:13:46;7.60;99.90
8226;DHT22;4154;48.810;9.012;2023-02-03T11:16:18;7.50;99.90
8226;DHT22;4154;48.810;9.012;2023-02-03T11:19:02;7.40;99.90
8226;DHT22;4154;48.810;9.012;2023-02-03T11:21:41;7.50;99.90
8226;DHT22;4154;48.810;9.012;2023-02-03T11:24:23;7.50;99.90
8226;DHT22;4154;48.810;9.012;2023-02-03T11:27:11;7.50;99.90
8226;DHT22;4154;48.810;9.012;2023-02-03T11:29:43;7.50;99.90
8226;DHT22;4154;48.810;9.012;2023-02-03T11:32:31;7.50;99.90
8226;DHT22;4154;48.810;9.012;2023-02-03T11:35:23;7.50;99.90
8226;DHT22;4154;48.810;9.012;2023-02-03T11:37:55;7.40;99.90
8226;DHT22;4154;48.810;9.012;2023-02-03T11:45:26;7.40;99.90
8226;DHT22;4154;48.810;9.012;2023-02-03T11:47:59;7.40;99.90
8226;DHT22;4154;48.810;9.012;2023-02-03T11:50:39;7.40;99.90
8226;DHT22;4154;48.810;9.012;2023-02-03T11:53:39;7.40;99.90
8226;DHT22;4154;48.810;9.012;2023-02-03T11:56:55;7.40;99.90
8226;DHT22;4154;48.810;9.012;2023-02-03T12:00:02;7.40;99.90
8226;DHT22;4154;48.810;9.012;2023-02-03T12:11:18;7.50;99.90
8226;DHT22;4154;48.810;9.012;2023-02-03T12:14:12;7.50;99.90
8226;DHT22;4154;48.810;9.012;2023-02-03T12:17:03;7.50;99.90
8226;DHT22;4154;48.810;9.012;2023-02-03T12:22:45;7.50;99.90
8226;DHT22;4154;48.810;9.012;2023-02-03T12:34:33;7.50;99.80
8226;DHT22;4154;48.810;9.012;2023-02-03T12:37:16;7.50;99.80
8226;DHT22;4154;48.810;9.012;2023-02-03T12:39:51;7.40;99.90
8226;DHT22;4154;48.810;9.012;2023-02-03T12:43:00;7.50;99.90
8226;DHT22;4154;48.810;9.012;2023-02-03T12:45:33;7.40;99.80
8226;DHT22;4154;48.810;9.012;2023-02-03T12:48:16;7.40;99.70
8226;DHT22;4154;48.810;9.012;2023-02-03T12:50:52;7.40;99.90
8226;DHT22;4154;48.810;9.012;2023-02-03T12:53:29;7.40;99.80
8226;DHT22;4154;48.810;9.012;2023-02-03T12:56:04;7.30;99.90
8226;DHT22;4154;48.810;9.012;2023-02-03T12:58:41;7.40;99.90
8226;DHT22;4154;48.810;9.012;2023-02-03T13:01:19;7.40;99.90
8226;DHT22;4154;48.810;9.012;2023-02-03T13:04:08;7.40;99.60
8226;DHT22;4154;48.810;9.012;2023-02-03T13:10:01;7.30;99.50
8226;DHT22;4154;48.810;9.012;2023-02-03T13:12:41;7.40;99.60
8226;DHT22;4154;48.810;9.012;2023-02-03T13:15:30;7.40;99.40
8226;DHT22;4154;48.810;9.012;2023-02-03T13:18:08;7.40;99.80
8226;DHT22;4154;48.810;9.012;2023-02-03T13:20:41;7.40;99.60
8226;DHT22;4154;48.810;9.012;2023-02-03T13:23:11;7.50;99.10
8226;DHT22;4154;48.810;9.012;2023-02-03T13:25:43;7.50;99.30
8226;DHT22;4154;48.810;9.012;2023-02-03T13:28:52;7.50;99.40
8226;DHT22;4154;48.810;9.012;2023-02-03T13:40:08;7.40;99.40
8226;DHT22;4154;48.810;9.012;2023-02-03T13:42:45;7.40;99.50
8226;DHT22;4154;48.810;9.012;2023-02-03T13:45:23;7.40;99.60
8226;DHT22;4154;48.810;9.012;2023-02-03T13:47:54;7.40;99.70
8226;DHT22;4154;48.810;9.012;2023-02-03T13:50:27;7.50;99.80
8226;DHT22;4154;48.810;9.012;2023-02-03T13:53:05;7.40;99.70
8226;DHT22;4154;48.810;9.012;2023-02-03T13:55:59;7.50;99.80
8226;DHT22;4154;48.810;9.012;2023-02-03T13:58:30;7.40;99.60
8226;DHT22;4154;48.810;9.012;2023-02-03T14:01:49;7.40;99.90
8226;DHT22;4154;48.810;9.012;2023-02-03T14:04:01;7.40;99.80
8226;DHT22;4154;48.810;9.012;2023-02-03T14:09:01;7.40;99.90
8226;DHT22;4154;48.810;9.012;2023-02-03T14:16:52;7.30;99.90
8226;DHT22;4154;48.810;9.012;2023-02-03T14:24:40;7.40;99.80
8226;DHT22;4154;48.810;9.012;2023-02-03T14:27:37;7.40;99.90
8226;DHT22;4154;48.810;9.012;2023-02-03T14:32:49;7.40;99.90
8226;DHT22;4154;48.810;9.012;2023-02-03T14:35:19;7.40;99.90
8226;DHT22;4154;48.810;9.012;2023-02-03T14:37:56;7.40;99.90
8226;DHT22;4154;48.810;9.012;2023-02-03T14:40:36;7.30;99.90
8226;DHT22;4154;48.810;9.012;2023-02-03T14:43:25;7.30;99.90
8226;DHT22;4154;48.810;9.012;2023-02-03T14:46:31;7.30;99.90
8226;DHT22;4154;48.810;9.012;2023-02-03T14:52:16;7.30;99.90
8226;DHT22;4154;48.810;9.012;2023-02-03T14:55:19;7.30;99.90
8226;DHT22;4154;48.810;9.012;2023-02-03T14:58:06;7.30;99.90
8226;DHT22;4154;48.810;9.012;2023-02-03T15:00:47;7.30;99.90
8226;DHT22;4154;48.810;9.012;2023-02-03T15:03:16;7.40;99.90
8226;DHT22;4154;48.810;9.012;2023-02-03T15:10:58;7.20;99.90
8226;DHT22;4154;48.810;9.012;2023-02-03T15:13:29;7.30;99.90
8226;DHT22;4154;48.810;9.012;2023-02-03T15:16:01;7.10;99.90
8226;DHT22;4154;48.810;9.012;2023-02-03T15:18:31;7.30;99.90
8226;DHT22;4154;48.810;9.012;2023-02-03T15:21:00;7.30;99.90
8226;DHT22;4154;48.810;9.012;2023-02-03T15:23:39;7.30;99.90
8226;DHT22;4154;48.810;9.012;2023-02-03T15:26:19;7.30;99.90
8226;DHT22;4154;48.810;9.012;2023-02-03T15:28:59;7.30;99.90
8226;DHT22;4154;48.810;9.012;2023-02-03T15:31:37;7.30;99.90
8226;DHT22;4154;48.810;9.012;2023-02-03T15:34:32;7.40;99.90
8226;DHT22;4154;48.810;9.012;2023-02-03T15:37:06;7.30;99.90
8226;DHT22;4154;48.810;9.012;2023-02-03T15:42:26;7.30;99.90
8226;DHT22;4154;48.810;9.012;2023-02-03T15:48:01;7.20;99.90
8226;DHT22;4154;48.810;9.012;2023-02-03T15:50:53;7.20;99.90
8226;DHT22;4154;48.810;9.012;2023-02-03T15:53:32;7.20;99.90
8226;DHT22;4154;48.810;9.012;2023-02-03T15:56:02;7.30;99.90
8226;DHT22;4154;48.810;9.012;2023-02-03T15:58:43;7.20;99.90
8226;DHT22;4154;48.810;9.012;2023-02-03T16:01:12;7.20;99.90
8226;DHT22;4154;48.810;9.012;2023-02-03T16:03:43;7.20;99.90
8226;DHT22;4154;48.810;9.012;2023-02-03T16:06:22;7.10;99.90
8226;DHT22;4154;48.810;9.012;2023-02-03T16:08:53;7.10;99.90
8226;DHT22;4154;48.810;9.012;2023-02-03T16:11:26;7.00;99.90
8226;DHT22;4154;48.810;9.012;2023-02-03T16:13:54;7.00;99.90
8226;DHT22;4154;48.810;9.012;2023-02-03T16:16:33;6.90;99.90
8226;DHT22;4154;48.810;9.012;2023-02-03T16:19:22;6.90;99.90
8226;DHT22;4154;48.810;9.012;2023-02-03T16:21:58;6.90;99.90
8226;DHT22;4154;48.810;9.012;2023-02-03T16:24:38;6.80;99.90
8226;DHT22;4154;48.810;9.012;2023-02-03T16:29:52;6.80;99.90
8226;DHT22;4154;48.810;9.012;2023-02-03T16:32:37;6.80;99.90
8226;DHT22;4154;48.810;9.012;2023-02-03T16:35:23;6.70;99.90
8226;DHT22;4154;48.810;9.012;2023-02-03T16:38:15;6.70;99.90
8226;DHT22;4154;48.810;9.012;2023-02-03T16:41:03;6.70;99.90
8226;DHT22;4154;48.810;9.012;2023-02-03T16:43:57;6.60;99.90
8226;DHT22;4154;48.810;9.012;2023-02-03T16:46:42;6.60;99.90
8226;DHT22;4154;48.810;9.012;2023-02-03T16:49:27;6.70;99.90
8226;DHT22;4154;48.810;9.012;2023-02-03T16:52:13;6.60;99.90
8226;DHT22;4154;48.810;9.012;2023-02-03T16:54:38;6.40;99.90
8226;DHT22;4154;48.810;9.012;2023-02-03T16:57:04;7.30;99.90
8226;DHT22;4154;48.810;9.012;2023-02-03T17:01:56;6.60;99.90
8226;DHT22;4154;48.810;9.012;2023-02-03T17:09:17;6.60;99.90
8226;DHT22;4154;48.810;9.012;2023-02-03T17:11:48;6.70;99.90
8226;DHT22;4154;48.810;9.012;2023-02-03T17:14:13;6.70;99.90
8226;DHT22;4154;48.810;9.012;2023-02-03T17:16:40;6.30;99.90
8226;DHT22;4154;48.810;9.012;2023-02-03T17:19:09;6.70;99.90
8226;DHT22;4154;48.810;9.012;2023-02-03T17:26:27;6.70;99.90
8226;DHT22;4154;48.810;9.012;2023-02-03T17:28:53;6.80;99.90
8226;DHT22;4154;48.810;9.012;2023-02-03T17:33:49;6.80;99.90
8226;DHT22;4154;48.810;9.012;2023-02-03T17:36:17;6.80;99.90
8226;DHT22;4154;48.810;9.012;2023-02-03T17:38:50;6.80;99.90
8226;DHT22;4154;48.810;9.012;2023-02-03T17:41:20;6.80;99.90
8226;DHT22;4154;48.810;9.012;2023-02-03T17:43:47;6.90;99.90
8226;DHT22;4154;48.810;9.012;2023-02-03T17:46:17;6.90;99.90
8226;DHT22;4154;48.810;9.012;2023-02-03T17:48:47;6.90;99.90
8226;DHT22;4154;48.810;9.012;2023-02-03T17:51:19;6.90;99.90
8226;DHT22;4154;48.810;9.012;2023-02-03T17:53:47;6.90;99.90
8226;DHT22;4154;48.810;9.012;2023-02-03T18:01:13;6.90;99.90
8226;DHT22;4154;48.810;9.012;2023-02-03T18:03:49;6.90;99.90
8226;DHT22;4154;48.810;9.012;2023-02-03T18:06:24;6.70;99.90
8226;DHT22;4154;48.810;9.012;2023-02-03T18:08:52;7.00;99.90
8226;DHT22;4154;48.810;9.012;2023-02-03T18:11:19;7.00;99.90
8226;DHT22;4154;48.810;9.012;2023-02-03T18:13:47;7.10;99.90
8226;DHT22;4154;48.810;9.012;2023-02-03T18:16:20;7.10;99.90
8226;DHT22;4154;48.810;9.012;2023-02-03T18:18:54;7.10;99.90
8226;DHT22;4154;48.810;9.012;2023-02-03T18:21:22;7.10;99.90
8226;DHT22;4154;48.810;9.012;2023-02-03T18:23:49;7.10;99.90
8226;DHT22;4154;48.810;9.012;2023-02-03T18:26:18;7.20;99.90
8226;DHT22;4154;48.810;9.012;2023-02-03T18:28:45;7.20;99.90
8226;DHT22;4154;48.810;9.012;2023-02-03T18:31:13;7.20;99.90
8226;DHT22;4154;48.810;9.012;2023-02-03T18:33:43;7.10;99.90
8226;DHT22;4154;48.810;9.012;2023-02-03T18:36:09;7.20;99.90
8226;DHT22;4154;48.810;9.012;2023-02-03T18:38:39;7.20;99.90
8226;DHT22;4154;48.810;9.012;2023-02-03T18:41:14;7.20;99.90
8226;DHT22;4154;48.810;9.012;2023-02-03T18:43:47;7.10;99.90
8226;DHT22;4154;48.810;9.012;2023-02-03T18:46:34;7.10;99.90
8226;DHT22;4154;48.810;9.012;2023-02-03T18:48:59;7.10;99.90
8226;DHT22;4154;48.810;9.012;2023-02-03T18:51:26;7.00;99.90
8226;DHT22;4154;48.810;9.012;2023-02-03T18:53:56;7.00;99.90
8226;DHT22;4154;48.810;9.012;2023-02-03T18:56:24;6.80;99.90
8226;DHT22;4154;48.810;9.012;2023-02-03T18:59:06;7.00;99.90
8226;DHT22;4154;48.810;9.012;2023-02-03T19:04:01;7.00;99.90
8226;DHT22;4154;48.810;9.012;2023-02-03T19:06:29;7.00;99.90
8226;DHT22;4154;48.810;9.012;2023-02-03T19:08:57;7.10;99.90
8226;DHT22;4154;48.810;9.012;2023-02-03T19:11:24;7.10;99.90
8226;DHT22;4154;48.810;9.012;2023-02-03T19:16:17;7.10;99.90
8226;DHT22;4154;48.810;9.012;2023-02-03T19:18:43;7.10;99.90
8226;DHT22;4154;48.810;9.012;2023-02-03T19:21:10;7.10;99.90
8226;DHT22;4154;48.810;9.012;2023-02-03T19:23:38;7.10;99.90
8226;DHT22;4154;48.810;9.012;2023-02-03T19:26:04;7.10;99.90
8226;DHT22;4154;48.810;9.012;2023-02-03T19:28:30;7.00;99.90